Time,TemperatureF,DewpointF,PressureIn,WindDirection,WindDirectionDegrees,WindSpeedMPH,WindSpeedGustMPH,Humidity,HourlyPrecipIn,Conditions,Clouds,dailyrainin,SoftwareType,DateUTC
2013-03-12 00:00:00,50.5,50.2,30.11,West,270,0.0,0.0,99,0.00,,,0.00,meteohub,2013-03-12 07:00:00,
2013-03-12 00:06:00,50.5,50.2,30.10,West,270,0.0,0.0,99,0.00,,,0.00,meteohub,2013-03-12 07:06:00,
2013-03-12 00:11:00,50.7,50.4,30.10,West,270,0.0,1.0,99,0.00,,,0.00,meteohub,2013-03-12 07:11:00,
2013-03-12 00:16:00,50.9,50.5,30.11,West,270,0.0,1.0,99,0.00,,,0.00,meteohub,2013-03-12 07:16:00,
2013-03-12 00:21:00,51.1,50.7,30.10,SW,225,2.0,2.0,99,0.00,,,0.00,meteohub,2013-03-12 07:21:00,
2013-03-12 00:26:00,51.1,50.7,30.10,SW,225,1.0,2.0,99,0.00,,,0.00,meteohub,2013-03-12 07:26:00,
2013-03-12 00:31:00,50.7,50.4,30.11,SW,225,1.0,2.0,99,0.00,,,0.00,meteohub,2013-03-12 07:31:00,
2013-03-12 00:36:00,50.5,50.2,30.10,SW,225,0.0,2.0,99,0.00,,,0.00,meteohub,2013-03-12 07:36:00,
2013-03-12 00:41:00,50.7,50.4,30.10,SW,225,0.0,2.0,99,0.00,,,0.00,meteohub,2013-03-12 07:41:00,
2013-03-12 00:46:00,50.9,50.5,30.10,SW,225,0.0,1.0,99,0.00,,,0.00,meteohub,2013-03-12 07:46:00,
2013-03-12 00:52:00,51.1,50.7,30.11,West,270,2.0,2.0,99,0.00,,,0.00,meteohub,2013-03-12 07:52:00,
2013-03-12 00:57:00,50.7,50.4,30.10,SW,225,2.0,2.0,99,0.00,,,0.00,meteohub,2013-03-12 07:57:00,
2013-03-12 01:02:00,50.5,50.2,30.10,SW,225,2.0,2.0,99,0.00,,,0.00,meteohub,2013-03-12 08:02:00,
2013-03-12 01:07:00,50.4,50.0,30.10,West,270,2.0,2.0,99,0.00,,,0.00,meteohub,2013-03-12 08:07:00,
2013-03-12 01:12:00,50.2,49.8,30.10,SW,225,2.0,3.0,99,0.00,,,0.00,meteohub,2013-03-12 08:12:00,
2013-03-12 01:17:00,50.4,50.0,30.10,SW,225,1.0,3.0,99,0.00,,,0.00,meteohub,2013-03-12 08:17:00,
2013-03-12 01:22:00,50.4,50.0,30.10,SW,225,3.0,4.0,99,0.00,,,0.00,meteohub,2013-03-12 08:22:00,
2013-03-12 01:27:00,50.4,50.0,30.10,SW,225,2.0,4.0,99,0.00,,,0.00,meteohub,2013-03-12 08:27:00,
2013-03-12 01:32:00,50.5,50.2,30.10,SW,225,2.0,4.0,99,0.00,,,0.00,meteohub,2013-03-12 08:32:00,
2013-03-12 01:37:00,50.5,50.2,30.10,SW,225,2.0,3.0,99,0.00,,,0.00,meteohub,2013-03-12 08:37:00,
2013-03-12 01:42:00,50.4,50.0,30.10,SW,225,3.0,3.0,99,0.00,,,0.00,meteohub,2013-03-12 08:42:00,
2013-03-12 01:47:00,50.4,50.0,30.10,West,270,3.0,3.0,99,0.00,,,0.00,meteohub,2013-03-12 08:47:00,
2013-03-12 01:52:00,50.4,50.0,30.10,West,270,2.0,4.0,99,0.00,,,0.00,meteohub,2013-03-12 08:52:00,
2013-03-12 01:57:00,50.4,50.0,30.10,West,270,2.0,4.0,99,0.00,,,0.00,meteohub,2013-03-12 08:57:00,
2013-03-12 02:02:00,50.0,49.6,30.10,NW,315,2.0,4.0,99,0.00,,,0.00,meteohub,2013-03-12 09:02:00,
2013-03-12 02:07:00,50.0,49.6,30.10,West,270,2.0,2.0,99,0.00,,,0.00,meteohub,2013-03-12 09:07:00,
2013-03-12 02:12:00,49.6,49.5,30.09,West,270,1.0,3.0,99,0.00,,,0.00,meteohub,2013-03-12 09:12:00,
2013-03-12 02:17:00,49.6,49.5,30.10,West,270,2.0,3.0,99,0.00,,,0.00,meteohub,2013-03-12 09:17:00,
2013-03-12 02:22:00,49.5,49.3,30.09,West,270,1.0,3.0,99,0.00,,,0.00,meteohub,2013-03-12 09:22:00,
2013-03-12 02:27:00,49.5,49.3,30.09,West,270,0.0,3.0,99,0.00,,,0.00,meteohub,2013-03-12 09:27:00,
2013-03-12 02:32:00,49.5,49.3,30.09,West,270,2.0,2.0,99,0.00,,,0.00,meteohub,2013-03-12 09:32:00,
2013-03-12 02:37:00,49.3,49.1,30.09,West,270,2.0,2.0,99,0.00,,,0.00,meteohub,2013-03-12 09:37:00,
2013-03-12 02:42:00,49.3,49.1,30.09,West,270,2.0,2.0,99,0.00,,,0.00,meteohub,2013-03-12 09:42:00,
2013-03-12 02:47:00,49.1,48.9,30.09,West,270,1.0,2.0,99,0.00,,,0.00,meteohub,2013-03-12 09:47:00,
2013-03-12 02:52:00,49.1,48.9,30.09,West,270,2.0,2.0,99,0.00,,,0.00,meteohub,2013-03-12 09:52:00,
2013-03-12 02:57:00,48.9,48.7,30.09,West,270,1.0,2.0,99,0.00,,,0.00,meteohub,2013-03-12 09:57:00,
2013-03-12 03:03:00,48.9,48.7,30.09,West,270,0.0,2.0,99,0.00,,,0.00,meteohub,2013-03-12 10:03:00,
2013-03-12 03:08:00,48.7,48.6,30.08,West,270,0.0,2.0,99,0.00,,,0.00,meteohub,2013-03-12 10:08:00,
2013-03-12 03:13:00,48.7,48.6,30.07,West,270,0.0,2.0,99,0.00,,,0.00,meteohub,2013-03-12 10:13:00,
2013-03-12 03:18:00,48.7,48.6,30.08,West,270,0.0,0.0,99,0.00,,,0.00,meteohub,2013-03-12 10:18:00,
2013-03-12 03:23:00,48.6,48.4,30.07,West,270,0.0,1.0,99,0.00,,,0.00,meteohub,2013-03-12 10:23:00,
2013-03-12 03:28:00,48.4,48.2,30.07,West,270,0.0,1.0,99,0.00,,,0.00,meteohub,2013-03-12 10:28:00,
2013-03-12 03:33:00,48.4,48.2,30.06,West,270,0.0,1.0,99,0.00,,,0.00,meteohub,2013-03-12 10:33:00,
2013-03-12 03:38:00,48.2,48.0,30.06,West,270,1.0,1.0,99,0.00,,,0.00,meteohub,2013-03-12 10:38:00,
2013-03-12 03:43:00,48.0,47.8,30.06,West,270,2.0,2.0,99,0.00,,,0.00,meteohub,2013-03-12 10:43:00,
2013-03-12 03:48:00,48.0,47.8,30.06,West,270,2.0,2.0,99,0.00,,,0.00,meteohub,2013-03-12 10:48:00,
2013-03-12 03:53:00,47.8,47.7,30.06,West,270,2.0,3.0,99,0.00,,,0.00,meteohub,2013-03-12 10:53:00,
2013-03-12 03:58:00,47.7,47.5,30.06,West,270,2.0,3.0,99,0.00,,,0.00,meteohub,2013-03-12 10:58:00,
2013-03-12 04:03:00,47.3,47.1,30.06,West,270,1.0,3.0,99,0.00,,,0.00,meteohub,2013-03-12 11:03:00,
2013-03-12 04:08:00,47.1,46.9,30.06,SE,135,2.0,3.0,99,0.00,,,0.00,meteohub,2013-03-12 11:08:00,
2013-03-12 04:13:00,47.1,46.9,30.06,SE,135,1.0,2.0,99,0.00,,,0.00,meteohub,2013-03-12 11:13:00,
2013-03-12 04:18:00,47.1,46.9,30.06,SE,135,1.0,2.0,99,0.00,,,0.00,meteohub,2013-03-12 11:18:00,
2013-03-12 04:23:00,46.9,46.8,30.06,NE,45,0.0,2.0,99,0.00,,,0.00,meteohub,2013-03-12 11:23:00,
2013-03-12 04:28:00,47.1,46.9,30.05,NE,45,3.0,3.0,99,0.00,,,0.00,meteohub,2013-03-12 11:28:00,
2013-03-12 04:33:00,47.1,46.9,30.05,SE,135,2.0,3.0,99,0.00,,,0.00,meteohub,2013-03-12 11:33:00,
2013-03-12 04:38:00,46.9,46.8,30.05,SE,135,2.0,3.0,99,0.00,,,0.00,meteohub,2013-03-12 11:38:00,
2013-03-12 04:43:00,46.9,46.8,30.05,SE,135,1.0,3.0,99,0.00,,,0.00,meteohub,2013-03-12 11:43:00,
2013-03-12 04:48:00,46.8,46.6,30.06,SE,135,1.0,2.0,99,0.00,,,0.00,meteohub,2013-03-12 11:48:00,
2013-03-12 04:53:00,46.8,46.6,30.05,SE,135,0.0,2.0,99,0.00,,,0.00,meteohub,2013-03-12 11:53:00,
2013-03-12 04:58:00,46.8,46.6,30.05,SE,135,0.0,2.0,99,0.00,,,0.00,meteohub,2013-03-12 11:58:00,
2013-03-12 05:03:00,46.4,46.2,30.05,SE,135,0.0,1.0,99,0.00,,,0.00,meteohub,2013-03-12 12:03:00,
2013-03-12 05:08:00,46.2,46.0,30.05,SE,135,0.0,0.0,99,0.00,,,0.00,meteohub,2013-03-12 12:08:00,
2013-03-12 05:13:00,46.0,45.9,30.05,SE,135,0.0,0.0,99,0.00,,,0.00,meteohub,2013-03-12 12:13:00,
2013-03-12 05:18:00,45.9,45.7,30.05,SE,135,2.0,0.0,99,0.00,,,0.00,meteohub,2013-03-12 12:18:00,
2013-03-12 05:23:00,45.9,45.7,30.05,SE,135,1.0,1.0,99,0.00,,,0.00,meteohub,2013-03-12 12:23:00,
2013-03-12 05:28:00,45.9,45.7,30.05,SE,135,1.0,2.0,99,0.00,,,0.00,meteohub,2013-03-12 12:28:00,
2013-03-12 05:33:00,45.7,45.5,30.05,SE,135,0.0,2.0,99,0.00,,,0.00,meteohub,2013-03-12 12:33:00,
2013-03-12 05:38:00,45.7,45.5,30.05,SE,135,0.0,2.0,99,0.00,,,0.00,meteohub,2013-03-12 12:38:00,
2013-03-12 05:43:00,45.9,45.7,30.04,SE,135,0.0,1.0,99,0.00,,,0.00,meteohub,2013-03-12 12:43:00,
2013-03-12 05:48:00,45.9,45.7,30.05,SE,135,0.0,2.0,99,0.00,,,0.00,meteohub,2013-03-12 12:48:00,
2013-03-12 05:53:00,45.9,45.7,30.05,SE,135,1.0,2.0,99,0.00,,,0.00,meteohub,2013-03-12 12:53:00,
2013-03-12 05:58:00,45.7,45.5,30.04,SE,135,0.0,2.0,99,0.00,,,0.00,meteohub,2013-03-12 12:58:00,
2013-03-12 06:03:00,45.9,45.7,30.05,SE,135,0.0,1.0,99,0.00,,,0.00,meteohub,2013-03-12 13:03:00,
2013-03-12 06:08:00,45.7,45.5,30.04,SE,135,0.0,1.0,99,0.00,,,0.00,meteohub,2013-03-12 13:08:00,
2013-03-12 06:13:00,45.5,45.3,30.04,SE,135,0.0,0.0,99,0.00,,,0.00,meteohub,2013-03-12 13:13:00,
2013-03-12 06:18:00,45.3,45.1,30.05,SE,135,0.0,0.0,99,0.00,,,0.00,meteohub,2013-03-12 13:18:00,
2013-03-12 06:23:00,45.3,45.1,30.05,SE,135,0.0,0.0,99,0.00,,,0.00,meteohub,2013-03-12 13:23:00,
2013-03-12 06:28:00,45.5,45.3,30.05,SE,135,0.0,1.0,99,0.00,,,0.00,meteohub,2013-03-12 13:28:00,
2013-03-12 06:34:00,45.3,45.1,30.04,SE,135,0.0,1.0,99,0.00,,,0.00,meteohub,2013-03-12 13:34:00,
2013-03-12 06:39:00,45.3,45.1,30.04,SE,135,0.0,1.0,99,0.00,,,0.00,meteohub,2013-03-12 13:39:00,
2013-03-12 06:44:00,45.1,45.0,30.05,SE,135,0.0,0.0,99,0.00,,,0.00,meteohub,2013-03-12 13:44:00,
2013-03-12 06:49:00,45.0,44.8,30.05,SE,135,0.0,0.0,99,0.00,,,0.00,meteohub,2013-03-12 13:49:00,
2013-03-12 06:54:00,44.6,44.4,30.05,SE,135,0.0,0.0,99,0.00,,,0.00,meteohub,2013-03-12 13:54:00,
2013-03-12 06:59:00,44.8,44.6,30.05,SE,135,0.0,0.0,99,0.00,,,0.00,meteohub,2013-03-12 13:59:00,
2013-03-12 07:04:00,45.1,45.0,30.05,SW,225,0.0,0.0,99,0.00,,,0.00,meteohub,2013-03-12 14:04:00,
2013-03-12 07:09:00,45.3,45.1,30.06,SW,225,0.0,0.0,99,0.00,,,0.00,meteohub,2013-03-12 14:09:00,
2013-03-12 07:14:00,45.3,45.1,30.06,SW,225,0.0,0.0,99,0.00,,,0.00,meteohub,2013-03-12 14:14:00,
2013-03-12 07:19:00,45.5,45.3,30.06,SW,225,2.0,0.0,99,0.00,,,0.00,meteohub,2013-03-12 14:19:00,
2013-03-12 07:24:00,45.7,45.5,30.06,SW,225,2.0,2.0,99,0.00,,,0.00,meteohub,2013-03-12 14:24:00,
2013-03-12 07:29:00,46.0,45.9,30.06,SW,225,2.0,2.0,99,0.00,,,0.00,meteohub,2013-03-12 14:29:00,
2013-03-12 07:34:00,46.4,46.2,30.06,SW,225,0.0,2.0,99,0.00,,,0.00,meteohub,2013-03-12 14:34:00,
2013-03-12 07:39:00,48.2,48.0,30.06,SW,225,1.0,2.0,99,0.00,,,0.00,meteohub,2013-03-12 14:39:00,
2013-03-12 07:44:00,49.1,48.9,30.06,SW,225,2.0,2.0,99,0.00,,,0.00,meteohub,2013-03-12 14:44:00,
2013-03-12 07:49:00,49.1,48.9,30.07,West,270,2.0,2.0,99,0.00,,,0.00,meteohub,2013-03-12 14:49:00,
2013-03-12 07:54:00,49.6,49.5,30.07,West,270,2.0,3.0,99,0.00,,,0.00,meteohub,2013-03-12 14:54:00,
2013-03-12 07:59:00,50.0,49.6,30.07,West,270,2.0,3.0,99,0.00,,,0.00,meteohub,2013-03-12 14:59:00,
2013-03-12 08:04:00,50.2,49.8,30.07,West,270,3.0,3.0,99,0.00,,,0.00,meteohub,2013-03-12 15:04:00,
2013-03-12 08:09:00,51.1,50.7,30.08,West,270,2.0,2.0,99,0.00,,,0.00,meteohub,2013-03-12 15:09:00,
2013-03-12 08:14:00,51.6,51.3,30.08,West,270,2.0,4.0,99,0.00,,,0.00,meteohub,2013-03-12 15:14:00,
2013-03-12 08:19:00,52.3,52.0,30.08,West,270,2.0,4.0,99,0.00,,,0.00,meteohub,2013-03-12 15:19:00,
2013-03-12 08:24:00,52.7,52.3,30.08,West,270,2.0,3.0,99,0.00,,,0.00,meteohub,2013-03-12 15:24:00,
2013-03-12 08:29:00,53.4,53.1,30.08,West,270,3.0,4.0,99,0.00,,,0.00,meteohub,2013-03-12 15:29:00,
2013-03-12 08:34:00,53.4,53.1,30.08,West,270,2.0,4.0,99,0.00,,,0.00,meteohub,2013-03-12 15:34:00,
2013-03-12 08:39:00,52.9,52.5,30.08,West,270,2.0,4.0,99,0.00,,,0.00,meteohub,2013-03-12 15:39:00,
2013-03-12 08:44:00,52.2,51.8,30.09,West,270,3.0,3.0,99,0.00,,,0.00,meteohub,2013-03-12 15:44:00,
2013-03-12 08:49:00,52.0,51.6,30.09,West,270,2.0,3.0,99,0.00,,,0.00,meteohub,2013-03-12 15:49:00,
2013-03-12 08:54:00,52.7,52.3,30.09,West,270,1.0,3.0,99,0.00,,,0.00,meteohub,2013-03-12 15:54:00,
2013-03-12 08:59:00,54.5,54.1,30.09,West,270,0.0,3.0,99,0.00,,,0.00,meteohub,2013-03-12 15:59:00,
2013-03-12 09:04:00,55.8,55.4,30.09,West,270,2.0,3.0,99,0.00,,,0.00,meteohub,2013-03-12 16:04:00,
2013-03-12 09:10:00,57.0,56.7,30.09,West,270,1.0,2.0,99,0.00,,,0.00,meteohub,2013-03-12 16:10:00,
2013-03-12 09:15:00,57.9,56.8,30.09,West,270,1.0,2.0,96,0.00,,,0.00,meteohub,2013-03-12 16:15:00,
2013-03-12 09:20:00,58.3,55.4,30.09,West,270,3.0,3.0,90,0.01,,,0.01,meteohub,2013-03-12 16:20:00,
2013-03-12 09:25:00,58.3,55.0,30.09,West,270,3.0,4.0,89,0.01,,,0.01,meteohub,2013-03-12 16:25:00,
2013-03-12 09:30:00,58.1,54.9,30.09,NW,315,4.0,4.0,89,0.01,,,0.01,meteohub,2013-03-12 16:30:00,
2013-03-12 09:35:00,58.5,55.6,30.09,NW,315,3.0,5.0,90,0.01,,,0.01,meteohub,2013-03-12 16:35:00,
2013-03-12 09:40:00,59.2,55.4,30.09,West,270,4.0,5.0,87,0.01,,,0.01,meteohub,2013-03-12 16:40:00,
2013-03-12 09:45:00,58.6,54.1,30.10,West,270,4.0,5.0,85,0.01,,,0.01,meteohub,2013-03-12 16:45:00,
2013-03-12 09:50:00,59.0,55.2,30.10,West,270,4.0,5.0,87,0.01,,,0.01,meteohub,2013-03-12 16:50:00,
2013-03-12 09:55:00,59.9,55.4,30.10,WSW,248,2.0,4.0,85,0.01,,,0.01,meteohub,2013-03-12 16:55:00,
2013-03-12 10:00:00,60.3,54.7,30.10,West,270,3.0,4.0,82,0.01,,,0.01,meteohub,2013-03-12 17:00:00,
2013-03-12 10:05:00,60.1,54.3,30.11,West,270,2.0,6.0,81,0.01,,,0.01,meteohub,2013-03-12 17:05:00,
2013-03-12 10:10:00,59.7,54.1,30.10,West,270,4.0,6.0,82,0.00,,,0.01,meteohub,2013-03-12 17:10:00,
2013-03-12 10:15:00,59.7,54.0,30.10,South,180,5.0,5.0,81,0.00,,,0.01,meteohub,2013-03-12 17:15:00,
2013-03-12 10:20:00,59.7,54.5,30.11,SW,225,2.0,6.0,83,0.00,,,0.01,meteohub,2013-03-12 17:20:00,
2013-03-12 10:25:00,59.7,54.0,30.11,West,270,8.0,8.0,81,0.00,,,0.01,meteohub,2013-03-12 17:25:00,
2013-03-12 10:30:00,59.9,54.3,30.11,West,270,3.0,8.0,82,0.00,,,0.01,meteohub,2013-03-12 17:30:00,
2013-03-12 10:35:00,60.1,54.5,30.11,West,270,6.0,8.0,82,0.00,,,0.01,meteohub,2013-03-12 17:35:00,
2013-03-12 10:40:00,60.1,54.5,30.11,NW,315,8.0,8.0,82,0.00,,,0.01,meteohub,2013-03-12 17:40:00,
2013-03-12 10:45:00,60.3,54.3,30.11,NW,315,4.0,8.0,81,0.00,,,0.01,meteohub,2013-03-12 17:45:00,
2013-03-12 10:50:00,61.0,54.7,30.10,NW,315,8.0,8.0,80,0.00,,,0.01,meteohub,2013-03-12 17:50:00,
2013-03-12 10:55:00,61.2,54.7,30.11,West,270,4.0,8.0,79,0.00,,,0.01,meteohub,2013-03-12 17:55:00,
2013-03-12 11:00:00,61.2,54.3,30.11,West,270,6.0,8.0,78,0.00,,,0.01,meteohub,2013-03-12 18:00:00,
2013-03-12 11:05:00,60.6,54.1,30.11,NW,315,8.0,8.0,79,0.00,,,0.01,meteohub,2013-03-12 18:05:00,
2013-03-12 11:10:00,60.8,54.3,30.11,West,270,6.0,8.0,79,0.00,,,0.01,meteohub,2013-03-12 18:10:00,
2013-03-12 11:15:00,60.6,54.5,30.11,WNW,293,5.0,8.0,80,0.00,,,0.01,meteohub,2013-03-12 18:15:00,
2013-03-12 11:20:00,60.8,54.7,30.11,WNW,293,5.0,8.0,80,0.00,,,0.01,meteohub,2013-03-12 18:20:00,
2013-03-12 11:25:00,61.2,54.3,30.11,NW,315,3.0,7.0,78,0.00,,,0.01,meteohub,2013-03-12 18:25:00,
2013-03-12 11:30:00,61.7,54.5,30.11,NW,315,6.0,7.0,77,0.00,,,0.01,meteohub,2013-03-12 18:30:00,
2013-03-12 11:35:00,61.5,54.0,30.10,West,270,4.0,7.0,76,0.00,,,0.01,meteohub,2013-03-12 18:35:00,
2013-03-12 11:40:00,62.4,55.0,30.10,NW,315,6.0,7.0,77,0.00,,,0.01,meteohub,2013-03-12 18:40:00,
2013-03-12 11:45:00,63.1,55.0,30.10,WNW,293,6.0,8.0,75,0.00,,,0.01,meteohub,2013-03-12 18:45:00,
2013-03-12 11:50:00,63.7,55.2,30.10,NW,315,8.0,8.0,74,0.00,,,0.01,meteohub,2013-03-12 18:50:00,
2013-03-12 11:55:00,64.4,55.9,30.10,NW,315,7.0,8.0,74,0.00,,,0.01,meteohub,2013-03-12 18:55:00,
2013-03-12 12:00:00,64.6,55.8,30.10,NW,315,6.0,8.0,73,0.00,,,0.01,meteohub,2013-03-12 19:00:00,
2013-03-12 12:05:00,64.8,55.6,30.10,West,270,6.0,8.0,72,0.00,,,0.01,meteohub,2013-03-12 19:05:00,
2013-03-12 12:10:00,64.6,56.1,30.10,West,270,4.0,8.0,74,0.00,,,0.01,meteohub,2013-03-12 19:10:00,
2013-03-12 12:15:00,64.8,55.6,30.10,NW,315,8.0,8.0,72,0.00,,,0.01,meteohub,2013-03-12 19:15:00,
2013-03-12 12:20:00,64.6,55.8,30.10,West,270,7.0,9.0,73,0.00,,,0.01,meteohub,2013-03-12 19:20:00,
2013-03-12 12:25:00,64.0,55.2,30.09,NW,315,8.0,10.0,73,0.00,,,0.01,meteohub,2013-03-12 19:25:00,
2013-03-12 12:30:00,64.8,56.3,30.09,NW,315,6.0,10.0,74,0.00,,,0.01,meteohub,2013-03-12 19:30:00,
2013-03-12 12:35:00,65.5,55.8,30.09,NW,315,3.0,10.0,71,0.00,,,0.01,meteohub,2013-03-12 19:35:00,
2013-03-12 12:40:00,66.7,56.3,30.09,NW,315,4.0,8.0,69,0.00,,,0.01,meteohub,2013-03-12 19:40:00,
2013-03-12 12:45:00,66.7,55.8,30.09,NW,315,3.0,8.0,68,0.00,,,0.01,meteohub,2013-03-12 19:45:00,
2013-03-12 12:51:00,67.5,55.8,30.08,West,270,8.0,8.0,66,0.00,,,0.01,meteohub,2013-03-12 19:51:00,
2013-03-12 12:56:00,68.7,56.5,30.08,West,270,5.0,8.0,65,0.00,,,0.01,meteohub,2013-03-12 19:56:00,
2013-03-12 13:01:00,68.4,55.8,30.08,West,270,5.0,8.0,64,0.00,,,0.01,meteohub,2013-03-12 20:01:00,
2013-03-12 13:06:00,68.9,55.4,30.08,NW,315,4.0,8.0,62,0.00,,,0.01,meteohub,2013-03-12 20:06:00,
2013-03-12 13:11:00,69.3,55.2,30.08,NW,315,5.0,8.0,61,0.00,,,0.01,meteohub,2013-03-12 20:11:00,
2013-03-12 13:16:00,69.3,56.1,30.08,West,270,4.0,8.0,63,0.00,,,0.01,meteohub,2013-03-12 20:16:00,
2013-03-12 13:21:00,70.0,55.9,30.08,NW,315,7.0,8.0,61,0.00,,,0.01,meteohub,2013-03-12 20:21:00,
2013-03-12 13:26:00,69.4,55.4,30.07,NW,315,8.0,8.0,61,0.00,,,0.01,meteohub,2013-03-12 20:26:00,
2013-03-12 13:31:00,68.9,54.9,30.07,West,270,9.0,9.0,61,0.00,,,0.01,meteohub,2013-03-12 20:31:00,
2013-03-12 13:36:00,68.5,55.0,30.07,West,270,8.0,9.0,62,0.00,,,0.01,meteohub,2013-03-12 20:36:00,
2013-03-12 13:41:00,69.3,55.8,30.06,NW,315,6.0,9.0,62,0.00,,,0.01,meteohub,2013-03-12 20:41:00,
2013-03-12 13:46:00,69.3,55.2,30.06,NW,315,7.0,9.0,61,0.00,,,0.01,meteohub,2013-03-12 20:46:00,
2013-03-12 13:51:00,69.4,54.5,30.06,WNW,293,7.0,8.0,59,0.00,,,0.01,meteohub,2013-03-12 20:51:00,
2013-03-12 13:56:00,69.6,55.0,30.06,WNW,293,6.0,8.0,60,0.00,,,0.01,meteohub,2013-03-12 20:56:00,
2013-03-12 14:01:00,70.2,54.1,30.06,WNW,293,7.0,9.0,57,0.00,,,0.01,meteohub,2013-03-12 21:01:00,
2013-03-12 14:06:00,70.3,54.0,30.06,West,270,9.0,9.0,56,0.00,,,0.01,meteohub,2013-03-12 21:06:00,
2013-03-12 14:11:00,70.2,54.1,30.05,WNW,293,7.0,9.0,57,0.00,,,0.01,meteohub,2013-03-12 21:11:00,
2013-03-12 14:16:00,69.6,54.1,30.05,WSW,248,4.0,9.0,58,0.00,,,0.01,meteohub,2013-03-12 21:16:00,
2013-03-12 14:21:00,69.8,54.0,30.05,WSW,248,7.0,9.0,57,0.00,,,0.01,meteohub,2013-03-12 21:21:00,
2013-03-12 14:26:00,69.8,54.0,30.04,West,270,8.0,9.0,57,0.00,,,0.01,meteohub,2013-03-12 21:26:00,
2013-03-12 14:31:00,70.2,53.8,30.04,West,270,7.0,9.0,56,0.00,,,0.01,meteohub,2013-03-12 21:31:00,
2013-03-12 14:36:00,70.3,53.4,30.04,West,270,6.0,9.0,55,0.00,,,0.01,meteohub,2013-03-12 21:36:00,
2013-03-12 14:41:00,70.7,53.8,30.04,SSW,203,4.0,9.0,55,0.00,,,0.01,meteohub,2013-03-12 21:41:00,
2013-03-12 14:47:00,70.7,54.3,30.04,NW,315,6.0,9.0,56,0.00,,,0.01,meteohub,2013-03-12 21:47:00,
2013-03-12 14:52:00,70.7,54.3,30.04,NW,315,7.0,9.0,56,0.00,,,0.01,meteohub,2013-03-12 21:52:00,
2013-03-12 14:57:00,70.3,54.3,30.04,NW,315,6.0,10.0,57,0.00,,,0.01,meteohub,2013-03-12 21:57:00,
2013-03-12 15:02:00,69.8,54.0,30.04,WNW,293,6.0,10.0,57,0.00,,,0.01,meteohub,2013-03-12 22:02:00,
2013-03-12 15:07:00,70.0,53.6,30.04,South,180,8.0,10.0,56,0.00,,,0.01,meteohub,2013-03-12 22:07:00,
2013-03-12 15:12:00,70.2,53.8,30.04,NW,315,7.0,10.0,56,0.00,,,0.01,meteohub,2013-03-12 22:12:00,
2013-03-12 15:17:00,70.5,53.6,30.04,WNW,293,8.0,9.0,55,0.00,,,0.01,meteohub,2013-03-12 22:17:00,
2013-03-12 15:22:00,70.5,52.5,30.04,West,270,10.0,10.0,53,0.00,,,0.01,meteohub,2013-03-12 22:22:00,
2013-03-12 15:27:00,70.7,53.2,30.03,WNW,293,7.0,10.0,54,0.00,,,0.01,meteohub,2013-03-12 22:27:00,
2013-03-12 15:32:00,70.3,51.4,30.03,West,270,8.0,10.0,51,0.00,,,0.01,meteohub,2013-03-12 22:32:00,
2013-03-12 15:37:00,70.5,53.1,30.03,NW,315,5.0,10.0,54,0.00,,,0.01,meteohub,2013-03-12 22:37:00,
2013-03-12 15:42:00,70.5,52.0,30.03,SSE,158,8.0,9.0,52,0.00,,,0.01,meteohub,2013-03-12 22:42:00,
2013-03-12 15:47:00,70.5,53.6,30.04,WNW,293,6.0,9.0,55,0.00,,,0.01,meteohub,2013-03-12 22:47:00,
2013-03-12 15:52:00,70.5,52.0,30.03,NW,315,9.0,9.0,52,0.00,,,0.01,meteohub,2013-03-12 22:52:00,
2013-03-12 15:57:00,70.2,53.8,30.03,West,270,6.0,11.0,56,0.00,,,0.01,meteohub,2013-03-12 22:57:00,
2013-03-12 16:02:00,69.8,52.9,30.03,NW,315,8.0,11.0,55,0.00,,,0.01,meteohub,2013-03-12 23:02:00,
2013-03-12 16:07:00,70.5,52.0,30.03,WNW,293,8.0,11.0,52,0.00,,,0.01,meteohub,2013-03-12 23:07:00,
2013-03-12 16:12:00,70.7,54.7,30.03,West,270,8.0,11.0,57,0.00,,,0.01,meteohub,2013-03-12 23:12:00,
2013-03-12 16:17:00,70.0,55.0,30.03,NW,315,5.0,10.0,59,0.00,,,0.01,meteohub,2013-03-12 23:17:00,
2013-03-12 16:22:00,69.4,55.9,30.03,West,270,7.0,10.0,62,0.00,,,0.01,meteohub,2013-03-12 23:22:00,
2013-03-12 16:27:00,68.9,55.8,30.02,WNW,293,8.0,10.0,63,0.00,,,0.01,meteohub,2013-03-12 23:27:00,
2013-03-12 16:32:00,68.7,56.1,30.02,SW,225,8.0,9.0,64,0.00,,,0.01,meteohub,2013-03-12 23:32:00,
2013-03-12 16:37:00,68.2,55.9,30.02,West,270,9.0,9.0,65,0.00,,,0.01,meteohub,2013-03-12 23:37:00,
2013-03-12 16:42:00,68.0,55.8,30.02,West,270,8.0,9.0,65,0.00,,,0.01,meteohub,2013-03-12 23:42:00,
2013-03-12 16:47:00,67.6,55.9,30.02,West,270,8.0,9.0,66,0.00,,,0.01,meteohub,2013-03-12 23:47:00,
2013-03-12 16:53:00,66.9,55.6,30.02,West,270,9.0,9.0,67,0.00,,,0.01,meteohub,2013-03-12 23:53:00,
2013-03-12 16:58:00,66.6,55.6,30.02,West,270,8.0,10.0,68,0.00,,,0.01,meteohub,2013-03-12 23:58:00,
2013-03-12 17:03:00,66.9,56.5,30.02,West,270,5.0,10.0,69,0.00,,,0.01,meteohub,2013-03-13 00:03:00,
2013-03-12 17:08:00,67.3,55.9,30.02,West,270,6.0,10.0,67,0.00,,,0.01,meteohub,2013-03-13 00:08:00,
2013-03-12 17:13:00,67.1,56.1,30.02,West,270,8.0,9.0,68,0.00,,,0.01,meteohub,2013-03-13 00:13:00,
2013-03-12 17:18:00,67.1,56.1,30.02,NW,315,4.0,9.0,68,0.00,,,0.01,meteohub,2013-03-13 00:18:00,
2013-03-12 17:23:00,67.6,56.7,30.02,WNW,293,5.0,8.0,68,0.00,,,0.01,meteohub,2013-03-13 00:23:00,
2013-03-12 17:28:00,67.3,55.9,30.02,WNW,293,4.0,8.0,67,0.00,,,0.01,meteohub,2013-03-13 00:28:00,
2013-03-12 17:33:00,66.9,55.9,30.02,West,270,6.0,8.0,68,0.00,,,0.01,meteohub,2013-03-13 00:33:00,
2013-03-12 17:38:00,67.1,56.1,30.02,West,270,7.0,8.0,68,0.00,,,0.01,meteohub,2013-03-13 00:38:00,
2013-03-12 17:43:00,66.9,56.5,30.02,SW,225,4.0,8.0,69,0.00,,,0.01,meteohub,2013-03-13 00:43:00,
2013-03-12 17:48:00,67.1,56.1,30.02,SW,225,4.0,8.0,68,0.00,,,0.01,meteohub,2013-03-13 00:48:00,
2013-03-12 17:53:00,67.5,56.5,30.02,WNW,293,4.0,8.0,68,0.00,,,0.01,meteohub,2013-03-13 00:53:00,
2013-03-12 17:58:00,67.8,56.5,30.02,West,270,3.0,6.0,67,0.00,,,0.01,meteohub,2013-03-13 00:58:00,
2013-03-12 18:03:00,66.7,55.8,30.02,West,270,3.0,6.0,68,0.00,,,0.01,meteohub,2013-03-13 01:03:00,
2013-03-12 18:08:00,66.0,55.9,30.02,West,270,4.0,5.0,70,0.00,,,0.01,meteohub,2013-03-13 01:08:00,
2013-03-12 18:13:00,65.5,55.8,30.02,SW,225,4.0,5.0,71,0.00,,,0.01,meteohub,2013-03-13 01:13:00,
2013-03-12 18:18:00,64.9,55.8,30.02,West,270,3.0,5.0,72,0.00,,,0.01,meteohub,2013-03-13 01:18:00,
2013-03-12 18:23:00,64.4,55.6,30.03,West,270,4.0,7.0,73,0.00,,,0.01,meteohub,2013-03-13 01:23:00,
2013-03-12 18:28:00,64.0,55.6,30.03,WNW,293,3.0,7.0,74,0.00,,,0.01,meteohub,2013-03-13 01:28:00,
2013-03-12 18:33:00,63.7,55.6,30.02,West,270,3.0,5.0,75,0.00,,,0.01,meteohub,2013-03-13 01:33:00,
2013-03-12 18:38:00,63.5,55.8,30.03,West,270,2.0,5.0,76,0.00,,,0.01,meteohub,2013-03-13 01:38:00,
2013-03-12 18:43:00,62.8,55.0,30.03,NW,315,2.0,5.0,76,0.00,,,0.01,meteohub,2013-03-13 01:43:00,
2013-03-12 18:48:00,62.4,55.4,30.03,SW,225,3.0,4.0,78,0.00,,,0.01,meteohub,2013-03-13 01:48:00,
2013-03-12 18:53:00,61.7,55.0,30.04,SW,225,2.0,4.0,79,0.00,,,0.01,meteohub,2013-03-13 01:53:00,
2013-03-12 18:58:00,61.2,54.9,30.04,West,270,3.0,4.0,80,0.00,,,0.01,meteohub,2013-03-13 01:58:00,
2013-03-12 19:03:00,60.6,55.0,30.04,West,270,3.0,4.0,82,0.00,,,0.01,meteohub,2013-03-13 02:03:00,
2013-03-12 19:08:00,60.4,54.9,30.04,West,270,1.0,4.0,82,0.00,,,0.01,meteohub,2013-03-13 02:08:00,
2013-03-12 19:13:00,60.3,54.7,30.04,West,270,1.0,4.0,82,0.00,,,0.01,meteohub,2013-03-13 02:13:00,
2013-03-12 19:19:00,60.1,54.9,30.04,West,270,2.0,3.0,83,0.00,,,0.01,meteohub,2013-03-13 02:19:00,
2013-03-12 19:24:00,60.1,54.9,30.04,West,270,1.0,2.0,83,0.00,,,0.01,meteohub,2013-03-13 02:24:00,
2013-03-12 19:29:00,59.7,54.1,30.05,West,270,0.0,2.0,82,0.00,,,0.01,meteohub,2013-03-13 02:29:00,
2013-03-12 19:34:00,59.2,54.0,30.04,West,270,0.0,2.0,83,0.00,,,0.01,meteohub,2013-03-13 02:34:00,
2013-03-12 19:39:00,58.8,54.0,30.05,West,270,0.0,2.0,84,0.00,,,0.01,meteohub,2013-03-13 02:39:00,
2013-03-12 19:44:00,58.6,54.1,30.05,SW,225,0.0,0.0,85,0.00,,,0.01,meteohub,2013-03-13 02:44:00,
2013-03-12 19:49:00,58.5,54.3,30.05,SW,225,2.0,0.0,86,0.00,,,0.01,meteohub,2013-03-13 02:49:00,
2013-03-12 19:54:00,58.3,54.1,30.05,SW,225,0.0,1.0,86,0.00,,,0.01,meteohub,2013-03-13 02:54:00,
2013-03-12 19:59:00,57.9,53.8,30.05,NW,315,2.0,2.0,86,0.00,,,0.01,meteohub,2013-03-13 02:59:00,
2013-03-12 20:04:00,58.3,52.2,30.06,NE,45,2.0,2.0,80,0.00,,,0.01,meteohub,2013-03-13 03:04:00,
2013-03-12 20:09:00,58.5,50.5,30.06,NE,45,2.0,4.0,75,0.00,,,0.01,meteohub,2013-03-13 03:09:00,
2013-03-12 20:14:00,59.0,48.4,30.06,North,0,3.0,4.0,68,0.00,,,0.01,meteohub,2013-03-13 03:14:00,
2013-03-12 20:19:00,59.5,48.2,30.06,North,0,2.0,4.0,66,0.00,,,0.01,meteohub,2013-03-13 03:19:00,
2013-03-12 20:24:00,59.5,48.2,30.06,North,0,2.0,4.0,66,0.00,,,0.01,meteohub,2013-03-13 03:24:00,
2013-03-12 20:29:00,59.5,48.6,30.06,North,0,1.0,4.0,67,0.00,,,0.01,meteohub,2013-03-13 03:29:00,
2013-03-12 20:34:00,59.0,48.0,30.07,North,0,0.0,3.0,67,0.00,,,0.01,meteohub,2013-03-13 03:34:00,
2013-03-12 20:39:00,58.6,48.2,30.07,North,0,2.0,2.0,68,0.00,,,0.01,meteohub,2013-03-13 03:39:00,
2013-03-12 20:44:00,58.3,48.6,30.07,North,0,2.0,3.0,70,0.00,,,0.01,meteohub,2013-03-13 03:44:00,
2013-03-12 20:49:00,57.9,48.9,30.08,North,0,2.0,3.0,72,0.00,,,0.01,meteohub,2013-03-13 03:49:00,
2013-03-12 20:54:00,57.6,48.9,30.07,NNE,23,2.0,3.0,73,0.00,,,0.01,meteohub,2013-03-13 03:54:00,
2013-03-12 20:59:00,57.2,49.3,30.08,NNE,23,2.0,3.0,75,0.00,,,0.01,meteohub,2013-03-13 03:59:00,
2013-03-12 21:00:00,57.2,49.3,30.08,NNE,23,2.0,3.0,75,0.00,,,0.01,meteohub,2013-03-13 04:00:00,
2013-03-12 21:05:00,56.8,49.3,30.08,NNE,23,1.0,3.0,76,0.00,,,0.01,meteohub,2013-03-13 04:05:00,
2013-03-12 21:10:00,56.7,49.8,30.08,NNE,23,2.0,2.0,78,0.00,,,0.01,meteohub,2013-03-13 04:10:00,
2013-03-12 21:15:00,56.3,50.2,30.08,NNE,23,1.0,2.0,80,0.00,,,0.01,meteohub,2013-03-13 04:15:00,
2013-03-12 21:20:00,55.9,50.2,30.08,NNE,23,2.0,2.0,81,0.00,,,0.01,meteohub,2013-03-13 04:20:00,
2013-03-12 21:25:00,55.9,50.5,30.08,NNE,23,2.0,2.0,82,0.00,,,0.01,meteohub,2013-03-13 04:25:00,
2013-03-12 21:30:00,55.9,50.9,30.08,NNE,23,0.0,2.0,83,0.00,,,0.01,meteohub,2013-03-13 04:30:00,
2013-03-12 21:35:00,55.6,50.5,30.08,NNE,23,0.0,2.0,83,0.00,,,0.01,meteohub,2013-03-13 04:35:00,
2013-03-12 21:40:00,55.2,50.2,30.09,NNE,23,0.0,2.0,83,0.00,,,0.01,meteohub,2013-03-13 04:40:00,
2013-03-12 21:45:00,54.7,50.0,30.09,NNE,23,0.0,1.0,84,0.00,,,0.01,meteohub,2013-03-13 04:45:00,
2013-03-12 21:50:00,54.5,50.0,30.09,NNE,23,0.0,1.0,85,0.00,,,0.01,meteohub,2013-03-13 04:50:00,
2013-03-12 21:55:00,54.1,50.0,30.09,NNE,23,0.0,0.0,86,0.00,,,0.01,meteohub,2013-03-13 04:55:00,
2013-03-12 22:00:00,54.0,49.8,30.09,NNE,23,0.0,0.0,86,0.00,,,0.01,meteohub,2013-03-13 05:00:00,
2013-03-12 22:05:00,53.8,50.4,30.09,NNE,23,1.0,0.0,88,0.00,,,0.01,meteohub,2013-03-13 05:05:00,
2013-03-12 22:10:00,53.8,50.5,30.09,NNE,23,0.0,2.0,89,0.00,,,0.01,meteohub,2013-03-13 05:10:00,
2013-03-12 22:15:00,53.8,50.5,30.10,NNE,23,0.0,2.0,89,0.00,,,0.01,meteohub,2013-03-13 05:15:00,
2013-03-12 22:20:00,53.8,50.5,30.09,NNE,23,0.0,2.0,89,0.00,,,0.01,meteohub,2013-03-13 05:20:00,
2013-03-12 22:25:00,53.8,50.9,30.09,NNE,23,0.0,1.0,90,0.00,,,0.01,meteohub,2013-03-13 05:25:00,
2013-03-12 22:30:00,53.8,50.9,30.10,NNE,23,0.0,1.0,90,0.00,,,0.01,meteohub,2013-03-13 05:30:00,
2013-03-12 22:35:00,54.1,51.6,30.10,NNE,23,3.0,3.0,91,0.00,,,0.01,meteohub,2013-03-13 05:35:00,
2013-03-12 22:36:00,54.1,51.6,30.10,NNE,23,2.0,2.0,91,0.00,,,0.01,meteohub,2013-03-13 05:36:00,
2013-03-12 22:42:00,54.5,51.6,30.10,NNE,23,0.0,3.0,90,0.00,,,0.01,meteohub,2013-03-13 05:42:00,
2013-03-12 22:47:00,54.5,51.6,30.10,NNE,23,0.0,3.0,90,0.00,,,0.01,meteohub,2013-03-13 05:47:00,
2013-03-12 22:52:00,54.3,51.4,30.11,NNE,23,0.0,3.0,90,0.00,,,0.01,meteohub,2013-03-13 05:52:00,
2013-03-12 22:57:00,54.3,51.4,30.11,NNE,23,0.0,0.0,90,0.00,,,0.01,meteohub,2013-03-13 05:57:00,
2013-03-12 23:02:00,54.1,51.3,30.11,NNE,23,0.0,0.0,90,0.00,,,0.01,meteohub,2013-03-13 06:02:00,
2013-03-12 23:07:00,54.3,51.8,30.10,NNE,23,0.0,0.0,91,0.00,,,0.01,meteohub,2013-03-13 06:07:00,
2013-03-12 23:12:00,54.3,51.8,30.10,NNE,23,0.0,1.0,91,0.00,,,0.01,meteohub,2013-03-13 06:12:00,
2013-03-12 23:17:00,54.3,51.4,30.10,NNE,23,2.0,2.0,90,0.00,,,0.01,meteohub,2013-03-13 06:17:00,
2013-03-12 23:22:00,54.3,51.4,30.11,NNE,23,0.0,2.0,90,0.00,,,0.01,meteohub,2013-03-13 06:22:00,
2013-03-12 23:27:00,53.8,50.9,30.11,NNE,23,0.0,2.0,90,0.00,,,0.01,meteohub,2013-03-13 06:27:00,
2013-03-12 23:32:00,53.4,50.5,30.11,NNE,23,0.0,2.0,90,0.00,,,0.01,meteohub,2013-03-13 06:32:00,
2013-03-12 23:37:00,53.2,50.7,30.11,NNE,23,2.0,2.0,91,0.00,,,0.01,meteohub,2013-03-13 06:37:00,
2013-03-12 23:42:00,53.1,50.5,30.11,NNE,23,0.0,2.0,91,0.00,,,0.01,meteohub,2013-03-13 06:42:00,
2013-03-12 23:47:00,52.7,50.2,30.10,NNE,23,0.0,2.0,91,0.00,,,0.01,meteohub,2013-03-13 06:47:00,
2013-03-12 23:52:00,52.7,50.4,30.10,NNE,23,0.0,2.0,92,0.00,,,0.01,meteohub,2013-03-13 06:52:00,
2013-03-12 23:57:00,52.5,50.2,30.10,NNE,23,0.0,1.0,92,0.00,,,0.01,meteohub,2013-03-13 06:57:00,